createdAt,value
2022-08-26T00:01:57.177Z,19.44
2022-08-26T00:07:00.696Z,19.39
2022-08-26T00:12:05.849Z,19.35
2022-08-26T00:17:09.780Z,19.34
2022-08-26T00:22:14.214Z,19.30
2022-08-26T00:27:24.998Z,19.24
2022-08-26T00:32:29.231Z,19.21
2022-08-26T00:37:33.539Z,19.13
2022-08-26T00:42:36.876Z,19.06
2022-08-26T00:47:46.433Z,19.00
2022-08-26T00:52:53.665Z,18.94
2022-08-26T00:57:57.253Z,18.90
2022-08-26T01:03:05.273Z,18.89
2022-08-26T01:08:11.656Z,18.89
2022-08-26T01:13:16.300Z,18.87
2022-08-26T01:18:25.024Z,18.88
2022-08-26T01:23:32.854Z,18.88
2022-08-26T01:28:38.489Z,18.84
2022-08-26T01:33:52.819Z,18.78
2022-08-26T01:38:57.737Z,18.73
2022-08-26T01:44:02.919Z,18.69
2022-08-26T01:49:08.599Z,18.69
2022-08-26T01:54:13.854Z,18.69
2022-08-26T01:59:20.464Z,18.67
2022-08-26T02:04:31.850Z,18.64
2022-08-26T02:09:41.579Z,18.59
2022-08-26T02:14:51.275Z,18.54
2022-08-26T02:19:54.943Z,18.50
2022-08-26T02:25:02.297Z,18.43
2022-08-26T02:30:17.952Z,18.37
2022-08-26T02:35:23.664Z,18.32
2022-08-26T02:40:32.927Z,18.28
2022-08-26T02:45:40.784Z,18.24
2022-08-26T02:50:44.507Z,18.21
2022-08-26T02:55:49.864Z,18.16
2022-08-26T03:00:53.937Z,18.15
2022-08-26T03:05:58.633Z,18.21
2022-08-26T03:11:01.887Z,18.29
2022-08-26T03:16:05.738Z,18.33
2022-08-26T03:21:12.075Z,18.32
2022-08-26T03:26:17.919Z,18.29
2022-08-26T03:31:21.499Z,18.26
2022-08-26T03:36:28.133Z,18.23
2022-08-26T03:41:35.327Z,18.19
2022-08-26T03:46:39.632Z,18.12
2022-08-26T03:51:43.280Z,18.07
2022-08-26T03:56:48.228Z,18.05
2022-08-26T04:01:51.593Z,18.10
2022-08-26T04:06:59.679Z,18.18
2022-08-26T04:12:04.132Z,18.27
2022-08-26T04:17:08.138Z,18.33
2022-08-26T04:22:12.082Z,18.39
2022-08-26T04:27:16.388Z,18.52
2022-08-26T04:32:20.109Z,18.78
2022-08-26T04:37:23.419Z,19.09
2022-08-26T04:42:27.762Z,19.45
2022-08-26T04:47:32.454Z,19.75
2022-08-26T04:52:36.967Z,19.85
2022-08-26T04:57:41.582Z,20.02
2022-08-26T05:02:44.786Z,20.15
2022-08-26T05:07:48.206Z,20.27
2022-08-26T05:12:53.354Z,20.36
2022-08-26T05:17:59.328Z,20.44
2022-08-26T05:23:04.943Z,20.61
2022-08-26T05:28:09.763Z,21.31
2022-08-26T05:33:13.458Z,23.11
2022-08-26T05:38:19.258Z,24.90
2022-08-26T05:43:22.546Z,26.39
2022-08-26T05:48:25.848Z,27.57
2022-08-26T05:53:29.158Z,28.58
2022-08-26T05:58:34.516Z,29.19
2022-08-26T06:03:40.593Z,29.97
2022-08-26T06:08:45.133Z,30.89
2022-08-26T06:13:48.456Z,31.87
2022-08-26T06:18:53.599Z,32.55
2022-08-26T06:24:19.050Z,32.71
2022-08-26T06:29:25.542Z,31.66
2022-08-26T06:34:30.719Z,31.08
2022-08-26T06:39:34.328Z,30.68
2022-08-26T06:44:37.906Z,30.42
2022-08-26T06:49:44.593Z,31.24
2022-08-26T06:54:47.908Z,32.45
2022-08-26T06:59:51.463Z,33.31
2022-08-26T07:04:54.730Z,33.66
2022-08-26T07:10:00.606Z,33.67
2022-08-26T07:15:06.560Z,34.30
2022-08-26T07:20:12.557Z,34.78
2022-08-26T07:25:16.790Z,34.90
2022-08-26T07:30:22.695Z,34.99
2022-08-26T07:35:27.079Z,35.02
2022-08-26T07:40:30.548Z,35.48
2022-08-26T07:45:34.223Z,35.97
2022-08-26T07:50:50.345Z,35.37
2022-08-26T07:55:54.771Z,33.99
2022-08-26T08:00:59.449Z,32.78
2022-08-26T08:06:04.157Z,32.01
2022-08-26T08:11:07.673Z,32.56
2022-08-26T08:16:13.343Z,32.10
2022-08-26T08:21:22.046Z,31.67
2022-08-26T08:26:28.054Z,31.43
2022-08-26T08:31:55.709Z,31.18
2022-08-26T08:36:57.630Z,30.99
2022-08-26T08:42:00.920Z,31.14
2022-08-26T08:47:34.248Z,33.11
2022-08-26T08:52:40.060Z,34.84
2022-08-26T08:58:02.504Z,35.59
2022-08-26T09:03:34.856Z,35.33
2022-08-26T09:08:38.374Z,34.35
2022-08-26T09:13:47.896Z,34.55
2022-08-26T09:18:51.139Z,35.27
2022-08-26T09:23:56.988Z,35.84
2022-08-26T09:29:03.856Z,36.26
2022-08-26T09:34:07.521Z,35.26
2022-08-26T09:39:31.823Z,34.28
2022-08-26T09:44:51.725Z,33.87
2022-08-26T09:50:15.106Z,33.33
2022-08-26T09:55:24.403Z,32.46
2022-08-26T10:00:40.773Z,32.01
2022-08-26T10:05:59.213Z,32.13
2022-08-26T10:11:28.776Z,32.03
2022-08-26T10:17:01.639Z,31.59
2022-08-26T10:22:18.292Z,31.26
2022-08-26T10:28:00.822Z,31.10
2022-08-26T10:33:08.837Z,30.96
2022-08-26T10:38:17.274Z,30.85
2022-08-26T10:43:44.002Z,30.80
2022-08-26T10:48:56.710Z,30.66
2022-08-26T10:54:37.864Z,30.41
2022-08-26T11:00:24.491Z,30.34
2022-08-26T11:05:31.181Z,30.29
2022-08-26T11:10:43.301Z,30.11
2022-08-26T11:15:58.796Z,29.95
2022-08-26T11:21:45.547Z,29.78
2022-08-26T11:26:55.314Z,29.60
2022-08-26T11:32:00.090Z,29.74
2022-08-26T11:37:16.357Z,29.85
2022-08-26T11:42:38.603Z,30.11
2022-08-26T11:47:43.040Z,30.44
2022-08-26T11:53:06.059Z,30.66
2022-08-26T11:58:12.803Z,30.90
2022-08-26T12:03:27.071Z,30.98
2022-08-26T12:08:34.644Z,31.06
2022-08-26T12:13:39.531Z,31.07
2022-08-26T12:18:44.973Z,31.08
2022-08-26T12:23:52.964Z,30.93
2022-08-26T12:29:12.597Z,30.77
2022-08-26T12:34:24.315Z,30.83
2022-08-26T12:39:34.589Z,30.79
2022-08-26T12:45:02.065Z,30.60
2022-08-26T12:50:18.688Z,30.58
2022-08-26T12:55:35.804Z,30.55
2022-08-26T13:00:46.044Z,30.59
2022-08-26T13:05:49.923Z,30.60
2022-08-26T13:11:30.916Z,30.58
2022-08-26T13:16:35.565Z,30.49
2022-08-26T13:21:48.510Z,30.51
2022-08-26T13:26:52.081Z,30.77
2022-08-26T13:31:56.487Z,31.09
2022-08-26T13:37:01.194Z,31.22
2022-08-26T13:42:04.911Z,31.34
2022-08-26T13:47:08.735Z,31.39
2022-08-26T13:52:12.353Z,31.43
2022-08-26T13:57:16.279Z,31.40
2022-08-26T14:02:20.429Z,31.14
2022-08-26T14:07:24.080Z,30.94
2022-08-26T14:12:27.747Z,30.67
2022-08-26T14:17:33.004Z,30.29
2022-08-26T14:23:03.443Z,29.99
2022-08-26T14:28:08.708Z,29.68
2022-08-26T14:33:15.105Z,29.44
2022-08-26T14:38:18.861Z,29.21
2022-08-26T14:43:22.163Z,29.14
2022-08-26T14:48:26.051Z,29.14
2022-08-26T14:53:47.789Z,29.22
2022-08-26T14:58:51.100Z,29.34
2022-08-26T15:03:54.617Z,29.43
2022-08-26T15:08:58.849Z,29.53
2022-08-26T15:14:02.861Z,29.61
2022-08-26T15:19:07.010Z,29.66
2022-08-26T15:24:10.524Z,29.71
2022-08-26T15:29:15.268Z,29.73
2022-08-26T15:34:18.784Z,29.74
2022-08-26T15:39:22.098Z,29.73
2022-08-26T15:44:26.739Z,29.71
2022-08-26T15:49:30.148Z,29.65
2022-08-26T15:54:34.538Z,29.58
2022-08-26T15:59:37.897Z,29.50
2022-08-26T16:04:41.518Z,29.40
2022-08-26T16:09:54.036Z,29.33
2022-08-26T16:14:58.486Z,29.26
2022-08-26T16:20:01.798Z,29.15
2022-08-26T16:25:08.426Z,29.06
2022-08-26T16:30:13.620Z,28.97
2022-08-26T16:35:17.562Z,28.87
2022-08-26T16:40:21.123Z,28.73
2022-08-26T16:45:25.817Z,28.54
2022-08-26T16:50:30.582Z,28.30
2022-08-26T16:55:34.497Z,28.03
2022-08-26T17:00:39.135Z,27.74
2022-08-26T17:05:42.863Z,27.46
2022-08-26T17:10:46.269Z,27.17
2022-08-26T17:15:54.407Z,26.86
2022-08-26T17:21:08.557Z,26.52
2022-08-26T17:26:13.649Z,26.20
2022-08-26T17:31:18.414Z,25.89
2022-08-26T17:36:27.437Z,25.59
2022-08-26T17:41:33.449Z,25.31
2022-08-26T17:46:38.528Z,25.02
2022-08-26T17:51:43.089Z,24.77
2022-08-26T17:56:47.322Z,24.55
2022-08-26T18:01:54.499Z,24.32
2022-08-26T18:07:00.100Z,24.11
2022-08-26T18:12:05.162Z,23.91
2022-08-26T18:17:09.896Z,23.71
2022-08-26T18:22:15.713Z,23.53
2022-08-26T18:27:20.585Z,23.33
2022-08-26T18:32:25.034Z,23.15
2022-08-26T18:37:31.591Z,22.96
2022-08-26T18:42:36.554Z,22.77
2022-08-26T18:47:40.187Z,22.59
2022-08-26T18:52:44.511Z,22.44
2022-08-26T18:57:48.135Z,22.30
2022-08-26T19:02:56.032Z,22.16
2022-08-26T19:08:03.408Z,22.09
2022-08-26T19:13:08.875Z,22.05
2022-08-26T19:18:15.518Z,22.14
2022-08-26T19:23:31.371Z,22.22
2022-08-26T19:28:35.946Z,22.26
2022-08-26T19:33:42.126Z,22.28
2022-08-26T19:38:46.631Z,22.27
2022-08-26T19:43:50.434Z,22.26
2022-08-26T19:48:55.871Z,22.19
2022-08-26T19:54:01.503Z,21.99
2022-08-26T19:59:05.248Z,21.84
2022-08-26T20:04:09.161Z,21.72
2022-08-26T20:09:12.981Z,21.62
2022-08-26T20:14:19.152Z,21.51
2022-08-26T20:19:46.027Z,21.40
2022-08-26T20:24:49.952Z,21.28
2022-08-26T20:29:57.975Z,21.17
2022-08-26T20:35:01.796Z,21.06
2022-08-26T20:40:09.260Z,20.97
2022-08-26T20:45:12.921Z,20.88
2022-08-26T20:50:16.644Z,20.79
2022-08-26T20:55:21.517Z,20.69
2022-08-26T21:00:27.007Z,20.59
2022-08-26T21:05:32.106Z,20.49
2022-08-26T21:10:35.729Z,20.39
2022-08-26T21:15:39.345Z,20.30
2022-08-26T21:20:42.960Z,20.20
2022-08-26T21:25:47.293Z,20.12
2022-08-26T21:30:51.552Z,20.05
2022-08-26T21:35:56.089Z,19.97
2022-08-26T21:41:01.871Z,19.89
2022-08-26T21:46:11.946Z,19.83
2022-08-26T21:51:17.875Z,19.76
2022-08-26T21:56:22.655Z,19.69
2022-08-26T22:01:29.793Z,19.61
2022-08-26T22:06:35.309Z,19.56
2022-08-26T22:11:39.009Z,19.52
2022-08-26T22:16:45.730Z,19.47
2022-08-26T22:21:56.023Z,19.42
2022-08-26T22:26:59.486Z,19.37
2022-08-26T22:32:03.236Z,19.31
2022-08-26T22:37:06.720Z,19.25
2022-08-26T22:42:10.133Z,19.20
2022-08-26T22:47:13.350Z,19.14
2022-08-26T22:52:16.755Z,19.10
2022-08-26T22:57:21.008Z,19.07
2022-08-26T23:02:24.708Z,19.03
2022-08-26T23:07:28.019Z,18.98
2022-08-26T23:12:31.775Z,18.93
2022-08-26T23:17:36.893Z,18.87
2022-08-26T23:22:40.921Z,18.83
2022-08-26T23:27:44.337Z,18.80
2022-08-26T23:32:47.748Z,18.77
2022-08-26T23:37:52.908Z,18.75
2022-08-26T23:42:58.773Z,18.70
2022-08-26T23:48:03.222Z,18.63
2022-08-26T23:53:06.725Z,18.58
2022-08-26T23:58:10.391Z,18.52
